Time;durP1;ratioP1;P1;durP2;ratioP2;P2;SDS_P1;SDS_P2;PMS_P1;PMS_P2;Temp;Humidity;BMP_temperature;BMP_pressure;BME280_temperature;BME280_humidity;BME280_pressure;Samples;Min_cycle;Max_cycle;Signal;HPM_P1;HPM_P2
2021/08/06 00:01:00;;;;;;;5.97;5.47;;;18.30;99.90;;;;;;4937752;29;20596;-71
2021/08/06 00:03:27;;;;;;;7.00;6.40;;;18.30;99.90;;;;;;4934755;28;20230;-72
2021/08/06 00:05:54;;;;;;;6.83;6.23;;;18.20;99.90;;;;;;4936151;29;20275;-71
2021/08/06 00:08:21;;;;;;;5.83;5.43;;;18.20;99.90;;;;;;4935062;29;20686;-72
2021/08/06 00:10:46;;;;;;;6.77;6.17;;;18.20;99.90;;;;;;4938289;29;20631;-72
2021/08/06 00:13:12;;;;;;;5.70;5.20;;;18.20;99.90;;;;;;4939086;28;20643;-71
2021/08/06 00:15:38;;;;;;;5.97;5.57;;;18.10;99.90;;;;;;4939545;29;20196;-71
2021/08/06 00:18:03;;;;;;;7.13;6.60;;;18.10;99.90;;;;;;4937108;28;20207;-71
2021/08/06 00:20:29;;;;;;;6.90;6.30;;;18.10;99.90;;;;;;4934803;29;20277;-71
2021/08/06 00:22:54;;;;;;;6.47;5.97;;;18.10;99.90;;;;;;4931271;28;20310;-71
2021/08/06 00:25:20;;;;;;;7.53;6.93;;;18.00;99.90;;;;;;4931620;28;20861;-72
2021/08/06 00:27:46;;;;;;;6.10;5.60;;;18.00;99.90;;;;;;4935423;28;20207;-71
2021/08/06 00:30:12;;;;;;;6.73;6.33;;;18.00;99.90;;;;;;4935469;29;20256;-71
2021/08/06 00:32:37;;;;;;;7.47;6.97;;;17.90;99.90;;;;;;4936185;28;20643;-71
2021/08/06 00:35:04;;;;;;;6.60;6.10;;;18.00;99.90;;;;;;4938356;29;20294;-71
2021/08/06 00:37:29;;;;;;;6.80;6.40;;;17.90;99.90;;;;;;4937397;28;20199;-71
2021/08/06 00:39:55;;;;;;;6.73;6.23;;;17.90;99.90;;;;;;4938613;29;20626;-72
2021/08/06 00:42:20;;;;;;;7.23;6.53;;;17.80;99.90;;;;;;4935260;28;20331;-71
2021/08/06 00:44:46;;;;;;;7.43;6.83;;;17.90;99.90;;;;;;4937385;28;20673;-71
2021/08/06 00:47:12;;;;;;;7.10;6.50;;;17.90;99.90;;;;;;4939049;29;20282;-72
2021/08/06 00:49:37;;;;;;;7.77;6.97;;;17.80;99.90;;;;;;4937749;28;20216;-71
2021/08/06 00:52:04;;;;;;;7.67;7.07;;;17.80;99.90;;;;;;4935989;29;20256;-71
2021/08/06 00:54:29;;;;;;;6.90;6.30;;;17.80;99.90;;;;;;4931474;29;20676;-72
2021/08/06 00:56:55;;;;;;;7.10;6.60;;;17.80;99.90;;;;;;4934918;29;21001;-72
2021/08/06 00:59:21;;;;;;;7.37;6.77;;;17.80;99.90;;;;;;4945162;28;20317;-71
2021/08/06 01:01:53;;;;;;;7.50;6.90;;;17.80;99.90;;;;;;4937586;28;20243;-71
2021/08/06 01:04:27;;;;;;;7.93;7.33;;;17.80;99.90;;;;;;4935576;28;20195;-71
2021/08/06 01:07:04;;;;;;;9.30;8.50;;;17.70;99.90;;;;;;4936718;29;20601;-71
2021/08/06 01:09:45;;;;;;;7.93;7.23;;;17.60;99.90;;;;;;4935267;29;20690;-71
2021/08/06 01:12:22;;;;;;;7.53;7.03;;;17.60;99.90;;;;;;4950257;28;21034;-72
2021/08/06 01:14:50;;;;;;;8.80;7.90;;;17.60;99.90;;;;;;4934695;28;21139;-71
2021/08/06 01:17:16;;;;;;;7.87;7.23;;;17.60;99.90;;;;;;4935399;28;21194;-71
2021/08/06 01:20:05;;;;;;;7.80;7.20;;;17.60;99.90;;;;;;4936077;29;21059;-71
2021/08/06 01:22:40;;;;;;;8.17;7.57;;;17.60;99.90;;;;;;4935056;28;20650;-71
2021/08/06 01:25:08;;;;;;;8.43;7.80;;;17.60;99.90;;;;;;4939697;28;21198;-71
2021/08/06 01:27:35;;;;;;;8.67;7.97;;;17.50;99.90;;;;;;4933888;28;20649;-71
2021/08/06 01:30:03;;;;;;;8.93;8.23;;;17.50;99.90;;;;;;4936084;29;20643;-71
2021/08/06 01:32:30;;;;;;;7.77;7.17;;;17.50;99.90;;;;;;4933198;28;20647;-71
2021/08/06 01:34:56;;;;;;;8.47;7.80;;;17.50;99.90;;;;;;4936002;29;20742;-72
2021/08/06 01:37:22;;;;;;;8.57;7.97;;;17.60;99.90;;;;;;4935647;28;20684;-71
2021/08/06 01:39:47;;;;;;;8.90;7.53;;;17.50;99.90;;;;;;4931972;29;20203;-71
2021/08/06 01:42:24;;;;;;;8.70;8.00;;;17.50;99.90;;;;;;4934733;28;20231;-71
2021/08/06 01:44:54;;;;;;;9.40;8.60;;;17.50;99.90;;;;;;4933251;29;20207;-71
2021/08/06 01:47:22;;;;;;;9.17;8.30;;;17.50;99.90;;;;;;4936857;28;21454;-71
2021/08/06 01:50:00;;;;;;;8.90;8.20;;;17.40;99.90;;;;;;4935207;29;20793;-71
2021/08/06 01:52:39;;;;;;;9.13;8.43;;;17.40;99.90;;;;;;4932859;28;20693;-71
2021/08/06 01:55:07;;;;;;;8.77;8.07;;;17.40;99.90;;;;;;4932407;29;20654;-72
2021/08/06 01:57:33;;;;;;;8.43;7.73;;;17.40;99.90;;;;;;4934052;28;24386;-72
2021/08/06 02:00:01;;;;;;;8.83;8.13;;;17.40;99.90;;;;;;4930594;28;21065;-72
2021/08/06 02:02:26;;;;;;;8.47;7.87;;;17.40;99.90;;;;;;4928860;28;20671;-71
2021/08/06 02:04:52;;;;;;;8.73;8.03;;;17.40;99.90;;;;;;4934674;29;20631;-72
2021/08/06 02:07:18;;;;;;;8.40;7.80;;;17.40;99.90;;;;;;4936775;28;20203;-71
2021/08/06 02:09:45;;;;;;;8.93;8.13;;;17.40;99.90;;;;;;4933774;29;20726;-71
2021/08/06 02:12:11;;;;;;;8.07;7.47;;;17.40;99.90;;;;;;4937086;28;20727;-72
2021/08/06 02:14:37;;;;;;;8.40;7.70;;;17.40;99.90;;;;;;4947004;28;20678;-71
2021/08/06 02:17:03;;;;;;;8.13;7.60;;;17.40;99.90;;;;;;4934606;28;21167;-72
2021/08/06 02:19:30;;;;;;;8.30;7.53;;;17.40;99.90;;;;;;4933436;29;20242;-71
2021/08/06 02:21:59;;;;;;;9.00;8.30;;;17.40;99.90;;;;;;4933618;28;21026;-71
2021/08/06 02:24:28;;;;;;;9.10;8.30;;;17.40;99.90;;;;;;4934566;29;20780;-71
2021/08/06 02:26:55;;;;;;;7.57;7.03;;;17.40;99.90;;;;;;4930410;28;20726;-71
2021/08/06 02:29:22;;;;;;;8.20;7.60;;;17.40;99.90;;;;;;4936363;28;20714;-72
2021/08/06 02:31:48;;;;;;;9.73;8.93;;;17.40;99.90;;;;;;4950365;28;20646;-71
2021/08/06 02:34:15;;;;;;;10.17;9.37;;;17.30;99.90;;;;;;4950087;28;20655;-71
2021/08/06 02:36:42;;;;;;;9.60;8.70;;;17.30;99.90;;;;;;4943624;29;20710;-71
2021/08/06 02:39:25;;;;;;;9.53;8.67;;;17.30;99.90;;;;;;4934853;28;20744;-71
2021/08/06 02:41:51;;;;;;;8.30;7.70;;;17.30;99.90;;;;;;4938623;28;20666;-71
2021/08/06 02:44:17;;;;;;;9.97;9.17;;;17.30;99.90;;;;;;4937053;28;20734;-71
2021/08/06 02:46:43;;;;;;;9.90;9.00;;;17.20;99.90;;;;;;4937353;28;20689;-71
2021/08/06 02:49:09;;;;;;;9.90;9.10;;;17.20;99.90;;;;;;4935776;28;20215;-71
2021/08/06 02:51:35;;;;;;;9.30;8.07;;;17.30;99.90;;;;;;4939201;28;21410;-71
2021/08/06 02:54:01;;;;;;;9.27;8.57;;;17.30;99.90;;;;;;4940020;29;20638;-72
2021/08/06 02:56:27;;;;;;;8.83;8.13;;;17.30;99.90;;;;;;4934975;28;20626;-72
2021/08/06 02:58:52;;;;;;;9.60;8.90;;;17.30;99.90;;;;;;4953123;28;20751;-71
2021/08/06 03:01:18;;;;;;;9.43;8.63;;;17.30;99.90;;;;;;4936784;28;20235;-72
2021/08/06 03:03:46;;;;;;;9.43;8.67;;;17.30;99.90;;;;;;4936006;28;20275;-71
2021/08/06 03:06:11;;;;;;;9.80;9.07;;;17.30;99.90;;;;;;4938514;29;20199;-70
2021/08/06 03:08:37;;;;;;;9.40;8.70;;;17.30;99.90;;;;;;4939266;28;20682;-71
2021/08/06 03:11:03;;;;;;;9.90;9.10;;;17.30;99.90;;;;;;4939711;28;20211;-72
2021/08/06 03:13:31;;;;;;;9.97;9.10;;;17.30;99.90;;;;;;4935083;28;20251;-70
2021/08/06 03:15:57;;;;;;;9.50;8.77;;;17.30;99.90;;;;;;4935726;28;20269;-70
2021/08/06 03:18:24;;;;;;;9.13;8.43;;;17.30;99.90;;;;;;4936878;29;20650;-70
2021/08/06 03:20:50;;;;;;;9.63;9.00;;;17.30;99.90;;;;;;4938463;29;20228;-71
2021/08/06 03:23:16;;;;;;;10.40;9.60;;;17.30;99.90;;;;;;4937603;28;21211;-70
2021/08/06 03:25:41;;;;;;;10.63;9.63;;;17.30;99.90;;;;;;4939242;28;20215;-70
2021/08/06 03:28:07;;;;;;;9.80;9.10;;;17.30;99.90;;;;;;4939869;28;20208;-70
2021/08/06 03:30:36;;;;;;;10.60;9.70;;;17.30;99.90;;;;;;4935097;29;20726;-70
2021/08/06 03:33:01;;;;;;;10.20;9.30;;;17.30;99.90;;;;;;4935585;28;20218;-70
2021/08/06 03:35:27;;;;;;;10.30;9.60;;;17.30;99.90;;;;;;4937089;29;21131;-71
2021/08/06 03:37:52;;;;;;;11.57;10.47;;;17.20;99.90;;;;;;4935743;29;20219;-70
2021/08/06 03:40:18;;;;;;;9.87;8.97;;;17.30;99.90;;;;;;4943188;28;20184;-71
2021/08/06 03:42:44;;;;;;;10.37;9.57;;;17.20;99.90;;;;;;4935848;28;20238;-70
2021/08/06 03:45:10;;;;;;;11.73;10.63;;;17.30;99.90;;;;;;4939209;29;20338;-70
2021/08/06 03:47:37;;;;;;;10.80;10.00;;;17.30;99.90;;;;;;4935591;28;20305;-70
2021/08/06 03:50:07;;;;;;;12.00;11.00;;;17.30;99.90;;;;;;4936750;29;20900;-70
2021/08/06 03:52:32;;;;;;;10.20;9.30;;;17.20;99.90;;;;;;4938918;28;20659;-70
2021/08/06 03:55:00;;;;;;;10.40;9.60;;;17.20;99.90;;;;;;4937614;29;20682;-70
2021/08/06 03:57:26;;;;;;;11.20;10.30;;;17.30;99.90;;;;;;4936250;29;20324;-70
2021/08/06 03:59:51;;;;;;;10.87;9.87;;;17.30;99.90;;;;;;4938006;28;20714;-71
2021/08/06 04:02:17;;;;;;;11.03;10.20;;;17.30;99.90;;;;;;4935254;28;20304;-71
2021/08/06 04:04:42;;;;;;;10.40;9.70;;;17.20;99.90;;;;;;4935334;29;20206;-71
2021/08/06 04:07:08;;;;;;;10.80;9.90;;;17.20;99.90;;;;;;4936760;28;20798;-71
2021/08/06 04:09:33;;;;;;;10.53;9.80;;;17.20;99.90;;;;;;4938546;28;20224;-71
2021/08/06 04:11:59;;;;;;;12.10;11.00;;;17.20;99.90;;;;;;4936628;28;20608;-71
2021/08/06 04:14:24;;;;;;;11.13;10.13;;;17.20;99.90;;;;;;4935091;28;20735;-71
2021/08/06 04:16:50;;;;;;;11.33;10.53;;;17.20;99.90;;;;;;4939565;29;20695;-71
2021/08/06 04:19:15;;;;;;;10.80;9.90;;;17.20;99.90;;;;;;4936177;28;20212;-71
2021/08/06 04:21:41;;;;;;;11.40;10.50;;;17.10;99.90;;;;;;4937747;28;20242;-71
2021/08/06 04:24:07;;;;;;;11.50;10.60;;;17.20;99.90;;;;;;4938516;29;20199;-70
2021/08/06 04:26:32;;;;;;;12.00;11.00;;;17.20;99.90;;;;;;4940849;29;20671;-71
2021/08/06 04:28:58;;;;;;;11.40;10.60;;;17.20;99.90;;;;;;4936684;28;20230;-71
2021/08/06 04:31:24;;;;;;;10.57;9.77;;;17.10;99.90;;;;;;4938745;28;20199;-71
2021/08/06 04:33:49;;;;;;;11.43;10.43;;;17.10;99.90;;;;;;4930336;28;20322;-71
2021/08/06 04:36:15;;;;;;;11.50;10.50;;;17.10;99.90;;;;;;4936907;29;20187;-71
2021/08/06 04:38:42;;;;;;;10.93;10.10;;;17.10;99.90;;;;;;4934471;29;20545;-71
2021/08/06 04:41:08;;;;;;;12.13;11.23;;;17.20;99.90;;;;;;4933577;29;20299;-71
2021/08/06 04:43:33;;;;;;;11.63;10.70;;;17.10;99.90;;;;;;4928388;28;20821;-71
2021/08/06 04:45:59;;;;;;;13.10;11.93;;;17.20;99.90;;;;;;4935518;29;20195;-71
2021/08/06 04:48:25;;;;;;;12.33;11.43;;;17.20;99.90;;;;;;4938091;28;21009;-71
2021/08/06 04:50:50;;;;;;;12.47;11.33;;;17.20;99.90;;;;;;4934499;28;20200;-71
2021/08/06 04:53:16;;;;;;;11.90;10.97;;;17.20;99.90;;;;;;4935965;28;20691;-71
2021/08/06 04:55:42;;;;;;;13.30;12.23;;;17.20;99.90;;;;;;4937195;29;20203;-71
2021/08/06 04:58:08;;;;;;;13.37;12.37;;;17.30;99.90;;;;;;4931181;28;20647;-71
2021/08/06 05:00:34;;;;;;;13.67;12.57;;;17.30;99.90;;;;;;4935727;28;20270;-71
2021/08/06 05:02:59;;;;;;;12.97;11.87;;;17.30;99.90;;;;;;4929517;28;20224;-71
2021/08/06 05:05:25;;;;;;;13.20;12.13;;;17.30;99.90;;;;;;4934434;28;21454;-71
2021/08/06 05:07:52;;;;;;;14.13;12.90;;;17.40;99.90;;;;;;4937827;28;20219;-71
2021/08/06 05:10:20;;;;;;;13.73;12.23;;;17.40;99.90;;;;;;4933887;28;20187;-71
2021/08/06 05:12:45;;;;;;;14.30;12.90;;;17.40;99.90;;;;;;4931499;28;20644;-71
2021/08/06 05:15:11;;;;;;;13.73;12.53;;;17.40;99.90;;;;;;4932058;28;20627;-72
2021/08/06 05:17:37;;;;;;;14.47;13.17;;;17.50;99.90;;;;;;4945369;28;20799;-71
2021/08/06 05:20:05;;;;;;;14.07;12.87;;;17.50;99.90;;;;;;4937100;28;20283;-71
2021/08/06 05:22:30;;;;;;;14.40;13.20;;;17.60;99.90;;;;;;4935998;28;20314;-72
2021/08/06 05:24:56;;;;;;;15.27;13.97;;;17.70;99.90;;;;;;4931021;28;20627;-75
2021/08/06 05:27:21;;;;;;;15.80;14.33;;;17.70;99.90;;;;;;4918300;28;20230;-75
2021/08/06 05:29:47;;;;;;;13.37;12.37;;;17.70;99.90;;;;;;4926442;28;20202;-75
2021/08/06 05:32:12;;;;;;;15.63;14.43;;;17.70;99.90;;;;;;4927889;28;20326;-76
2021/08/06 05:34:38;;;;;;;15.60;14.07;;;17.70;99.90;;;;;;4931978;28;20331;-71
2021/08/06 05:37:03;;;;;;;14.03;12.93;;;17.80;99.90;;;;;;4930954;28;20483;-71
2021/08/06 05:39:32;;;;;;;13.87;12.77;;;17.80;99.90;;;;;;4932412;28;21048;-71
2021/08/06 05:41:57;;;;;;;13.67;12.57;;;17.80;99.90;;;;;;4933179;28;20288;-71
2021/08/06 05:44:23;;;;;;;13.23;12.13;;;17.80;99.90;;;;;;4942516;28;20653;-71
2021/08/06 05:46:48;;;;;;;13.20;12.13;;;17.90;99.90;;;;;;4943825;29;20203;-71
2021/08/06 05:49:14;;;;;;;12.03;11.13;;;17.90;99.90;;;;;;4933421;28;20226;-70
2021/08/06 05:51:39;;;;;;;11.30;10.50;;;17.90;99.90;;;;;;4934225;28;20236;-72
2021/08/06 05:54:05;;;;;;;11.03;10.20;;;17.90;99.90;;;;;;4927626;28;20262;-69
2021/08/06 05:56:31;;;;;;;10.60;9.80;;;18.00;99.90;;;;;;4931694;28;20664;-72
2021/08/06 05:58:57;;;;;;;9.70;9.03;;;17.90;99.90;;;;;;4929684;28;20533;-72
2021/08/06 06:01:23;;;;;;;10.60;9.60;;;18.00;99.90;;;;;;4933354;28;20667;-70
2021/08/06 06:03:48;;;;;;;9.60;8.80;;;18.10;99.90;;;;;;4927780;28;20653;-70
2021/08/06 06:06:16;;;;;;;8.97;8.30;;;18.10;99.90;;;;;;4921907;28;20760;-70
2021/08/06 06:08:42;;;;;;;9.57;8.87;;;18.10;99.90;;;;;;4938090;28;20220;-70
2021/08/06 06:11:10;;;;;;;7.97;7.43;;;18.10;99.90;;;;;;4939063;28;20624;-70
2021/08/06 06:13:36;;;;;;;9.00;8.37;;;18.10;99.90;;;;;;4932821;28;20254;-72
2021/08/06 06:16:02;;;;;;;9.10;8.40;;;18.20;99.90;;;;;;4935073;28;21281;-70
2021/08/06 06:18:28;;;;;;;8.20;7.60;;;18.20;99.90;;;;;;4936421;28;20677;-70
2021/08/06 06:20:53;;;;;;;7.87;7.23;;;18.30;99.90;;;;;;4940693;28;20655;-72
2021/08/06 06:23:19;;;;;;;8.50;7.70;;;18.30;99.90;;;;;;4937610;28;20583;-70
2021/08/06 06:25:45;;;;;;;8.23;7.53;;;18.30;99.90;;;;;;4931012;28;20180;-70
2021/08/06 06:28:10;;;;;;;7.80;7.30;;;18.40;99.90;;;;;;4932230;28;20200;-70
2021/08/06 06:30:36;;;;;;;8.33;7.63;;;18.40;99.90;;;;;;4941026;28;20247;-70
2021/08/06 06:33:03;;;;;;;6.60;6.10;;;18.40;99.90;;;;;;4933768;28;20592;-70
2021/08/06 06:35:30;;;;;;;7.03;6.43;;;18.50;99.90;;;;;;4934191;28;20629;-70
2021/08/06 06:37:56;;;;;;;7.40;6.80;;;18.50;99.90;;;;;;4933480;29;20727;-70
2021/08/06 06:40:23;;;;;;;6.47;5.97;;;18.50;99.90;;;;;;4933971;28;20655;-70
2021/08/06 06:42:49;;;;;;;6.00;5.60;;;18.60;99.90;;;;;;4939607;28;20243;-70
2021/08/06 06:45:17;;;;;;;6.20;5.80;;;18.60;99.90;;;;;;4932366;28;20649;-70
2021/08/06 06:47:47;;;;;;;6.20;5.80;;;18.60;99.90;;;;;;4941811;29;20686;-70
2021/08/06 06:50:15;;;;;;;6.00;5.60;;;18.60;99.90;;;;;;4940506;28;20773;-73
2021/08/06 06:52:42;;;;;;;5.93;5.53;;;18.80;99.90;;;;;;4935060;28;20674;-70
2021/08/06 06:55:09;;;;;;;5.73;5.33;;;18.70;99.90;;;;;;4942155;28;20809;-70
2021/08/06 06:57:49;;;;;;;6.60;6.00;;;18.80;99.90;;;;;;4948344;28;20646;-70
2021/08/06 07:00:16;;;;;;;6.10;5.70;;;18.90;99.90;;;;;;4936748;28;20651;-70
2021/08/06 07:02:42;;;;;;;6.70;6.10;;;18.80;99.90;;;;;;4934590;28;21214;-70
2021/08/06 07:05:09;;;;;;;5.70;5.30;;;18.90;99.90;;;;;;4938141;28;20641;-69
2021/08/06 07:07:35;;;;;;;5.60;5.20;;;18.90;99.90;;;;;;4938908;28;20324;-70
2021/08/06 07:10:01;;;;;;;6.00;5.60;;;19.00;99.90;;;;;;4938193;28;20787;-70
2021/08/06 07:12:26;;;;;;;5.87;5.37;;;19.10;99.90;;;;;;4935833;28;20238;-70
2021/08/06 07:14:52;;;;;;;6.70;6.20;;;19.20;99.90;;;;;;4936769;28;20203;-70
2021/08/06 07:17:18;;;;;;;5.67;5.17;;;19.30;99.90;;;;;;4938409;28;20196;-70
2021/08/06 07:19:43;;;;;;;6.40;6.00;;;19.30;99.90;;;;;;4935246;28;20207;-70
2021/08/06 07:22:09;;;;;;;5.73;5.27;;;19.40;99.90;;;;;;4941905;28;20284;-70
2021/08/06 07:24:34;;;;;;;6.07;5.67;;;19.50;99.90;;;;;;4938660;28;20376;-70
2021/08/06 07:27:00;;;;;;;5.40;5.10;;;19.60;99.90;;;;;;4936828;28;20226;-74
2021/08/06 07:29:25;;;;;;;5.90;5.50;;;19.70;99.90;;;;;;4941011;28;20285;-70
2021/08/06 07:31:51;;;;;;;5.90;5.50;;;19.70;99.90;;;;;;4939492;28;20655;-70
2021/08/06 07:34:16;;;;;;;5.50;5.10;;;19.80;99.90;;;;;;4933406;28;20222;-71
2021/08/06 07:36:42;;;;;;;5.30;5.00;;;19.80;99.90;;;;;;4936657;28;20187;-71
2021/08/06 07:39:08;;;;;;;5.40;5.10;;;19.90;99.90;;;;;;4938270;28;20238;-71
2021/08/06 07:41:33;;;;;;;5.70;5.30;;;19.90;99.90;;;;;;4939618;28;20235;-72
2021/08/06 07:43:59;;;;;;;5.70;5.27;;;19.90;99.90;;;;;;4941619;28;20199;-71
2021/08/06 07:46:25;;;;;;;5.87;5.47;;;20.00;99.90;;;;;;4943510;28;20637;-71
2021/08/06 07:48:50;;;;;;;5.50;5.20;;;20.00;99.90;;;;;;4937447;28;20239;-72
2021/08/06 07:51:16;;;;;;;5.50;5.20;;;20.10;99.90;;;;;;4950163;28;20198;-71
2021/08/06 07:53:41;;;;;;;5.30;4.90;;;20.20;99.90;;;;;;4954703;28;20196;-70
2021/08/06 07:56:13;;;;;;;5.27;4.97;;;20.20;99.90;;;;;;4940994;28;20196;-70
2021/08/06 07:58:39;;;;;;;5.47;5.17;;;20.20;99.90;;;;;;4937386;28;20219;-71
2021/08/06 08:01:04;;;;;;;5.17;4.87;;;20.40;99.90;;;;;;4937095;28;20663;-71
2021/08/06 08:03:30;;;;;;;5.03;4.67;;;20.40;99.90;;;;;;4935207;28;20775;-70
2021/08/06 08:05:55;;;;;;;5.10;4.63;;;20.50;99.90;;;;;;4940823;28;20203;-70
2021/08/06 08:08:21;;;;;;;4.47;4.23;;;20.50;99.90;;;;;;4942987;28;20225;-69
2021/08/06 08:10:46;;;;;;;5.00;4.60;;;20.60;99.90;;;;;;4939044;28;20192;-71
2021/08/06 08:13:12;;;;;;;5.30;4.83;;;20.60;99.90;;;;;;4940950;28;20226;-70
2021/08/06 08:15:38;;;;;;;4.63;4.33;;;20.70;99.90;;;;;;4938808;28;20184;-70
2021/08/06 08:18:04;;;;;;;4.63;4.33;;;20.70;99.90;;;;;;4940000;29;20233;-71
2021/08/06 08:20:30;;;;;;;5.20;4.90;;;20.90;99.90;;;;;;4940488;28;21107;-71
2021/08/06 08:22:58;;;;;;;4.53;4.30;;;20.90;99.90;;;;;;4938242;28;20227;-71
2021/08/06 08:25:23;;;;;;;5.10;4.70;;;21.00;99.90;;;;;;4941343;28;20295;-71
2021/08/06 08:27:49;;;;;;;4.80;4.47;;;21.10;99.90;;;;;;4935745;28;20718;-71
2021/08/06 08:30:14;;;;;;;4.77;4.47;;;21.20;99.90;;;;;;4938618;28;21073;-71
2021/08/06 08:32:40;;;;;;;5.00;4.70;;;21.20;99.90;;;;;;4940577;28;20283;-71
2021/08/06 08:35:06;;;;;;;5.30;4.90;;;21.20;99.90;;;;;;4939456;28;20215;-71
2021/08/06 08:37:32;;;;;;;4.93;4.63;;;21.20;99.90;;;;;;4941124;28;20188;-71
2021/08/06 08:39:58;;;;;;;5.57;5.20;;;21.20;99.90;;;;;;4937739;28;20623;-71
2021/08/06 08:42:23;;;;;;;5.40;5.00;;;21.20;99.90;;;;;;4943499;28;20372;-71
2021/08/06 08:44:49;;;;;;;5.37;4.83;;;21.20;99.90;;;;;;4939943;28;20290;-71
2021/08/06 08:47:24;;;;;;;5.30;4.80;;;21.30;99.90;;;;;;4937116;28;20195;-71
2021/08/06 08:49:51;;;;;;;4.70;4.40;;;21.40;99.90;;;;;;4938257;28;20199;-71
2021/08/06 08:52:19;;;;;;;4.63;4.33;;;21.50;99.90;;;;;;4942287;28;21230;-71
2021/08/06 08:54:44;;;;;;;5.40;5.10;;;21.40;99.90;;;;;;4941889;28;20622;-71
2021/08/06 08:57:10;;;;;;;4.97;4.67;;;21.50;99.90;;;;;;4941160;28;20626;-71
2021/08/06 08:59:36;;;;;;;5.00;4.70;;;21.50;99.90;;;;;;4939712;28;20248;-71
2021/08/06 09:02:01;;;;;;;5.30;4.40;;;21.60;99.90;;;;;;4935911;28;20224;-71
2021/08/06 09:04:29;;;;;;;4.40;4.10;;;21.70;99.90;;;;;;4932981;28;20207;-71
2021/08/06 09:06:56;;;;;;;4.70;4.40;;;21.80;99.90;;;;;;4931362;28;20222;-71
2021/08/06 09:09:24;;;;;;;5.10;4.80;;;21.90;99.90;;;;;;4934253;28;20665;-71
2021/08/06 09:11:51;;;;;;;5.53;4.90;;;21.90;99.90;;;;;;4947033;28;20707;-71
2021/08/06 09:14:27;;;;;;;4.60;4.37;;;21.90;99.90;;;;;;4948587;28;20671;-71
2021/08/06 09:17:00;;;;;;;4.60;4.30;;;22.00;99.90;;;;;;4943516;28;20640;-71
2021/08/06 09:19:28;;;;;;;5.20;4.70;;;22.00;99.90;;;;;;4938209;28;20678;-71
2021/08/06 09:22:15;;;;;;;4.10;3.80;;;22.20;99.90;;;;;;4937346;28;21309;-71
2021/08/06 09:24:59;;;;;;;5.07;4.77;;;22.20;99.90;;;;;;4937708;28;20730;-71
2021/08/06 09:27:27;;;;;;;4.60;4.30;;;22.30;99.90;;;;;;4935236;28;20643;-71
2021/08/06 09:29:53;;;;;;;4.30;4.00;;;22.30;99.90;;;;;;4929783;28;21258;-71
2021/08/06 09:32:19;;;;;;;5.00;4.60;;;22.50;99.90;;;;;;4934533;28;20678;-71
2021/08/06 09:34:45;;;;;;;5.00;4.60;;;22.50;99.90;;;;;;4938232;28;21092;-72
2021/08/06 09:37:16;;;;;;;4.60;4.30;;;22.60;99.90;;;;;;4935518;28;20222;-71
2021/08/06 09:39:45;;;;;;;4.53;4.23;;;22.70;99.90;;;;;;4934635;29;20697;-71
2021/08/06 09:42:24;;;;;;;3.77;3.57;;;22.70;99.90;;;;;;4935510;28;20710;-71
2021/08/06 09:45:09;;;;;;;3.93;3.67;;;22.70;99.90;;;;;;4933973;28;21179;-72
2021/08/06 09:47:37;;;;;;;4.00;3.80;;;22.80;99.90;;;;;;4939086;28;20630;-71
2021/08/06 09:50:15;;;;;;;4.20;4.00;;;22.90;99.90;;;;;;4942410;28;20636;-71
2021/08/06 09:52:43;;;;;;;4.23;4.03;;;22.90;99.90;;;;;;4926797;28;20646;-71
2021/08/06 09:55:11;;;;;;;3.97;3.70;;;23.00;99.90;;;;;;4930493;29;20628;-71
2021/08/06 09:57:43;;;;;;;4.00;3.80;;;23.00;99.90;;;;;;4933040;28;20754;-71
2021/08/06 10:00:13;;;;;;;4.30;4.10;;;23.10;99.90;;;;;;4932551;28;20638;-71
2021/08/06 10:02:41;;;;;;;4.03;3.73;;;23.20;99.90;;;;;;4931582;28;20654;-71
2021/08/06 10:05:15;;;;;;;4.77;4.47;;;23.30;99.90;;;;;;4927284;29;20627;-71
2021/08/06 10:07:44;;;;;;;4.20;3.80;;;23.40;99.90;;;;;;4927869;28;20753;-71
2021/08/06 10:10:21;;;;;;;4.03;3.73;;;23.40;99.90;;;;;;4927366;29;20666;-71
2021/08/06 10:12:48;;;;;;;4.40;4.20;;;23.40;99.90;;;;;;4935921;28;21320;-70
2021/08/06 10:15:15;;;;;;;4.57;4.27;;;23.50;99.90;;;;;;4933633;28;20615;-71
2021/08/06 10:17:41;;;;;;;4.40;4.20;;;23.60;99.90;;;;;;4927947;28;20661;-70
2021/08/06 10:20:10;;;;;;;4.03;3.70;;;23.70;99.90;;;;;;4929250;29;20623;-71
2021/08/06 10:22:36;;;;;;;4.20;3.90;;;23.80;99.90;;;;;;4916289;28;21555;-71
2021/08/06 10:25:06;;;;;;;4.37;4.07;;;23.80;99.90;;;;;;4929795;28;20615;-71
2021/08/06 10:27:34;;;;;;;4.87;4.57;;;23.80;99.90;;;;;;4934919;28;20618;-71
2021/08/06 10:30:19;;;;;;;3.80;3.50;;;23.90;99.90;;;;;;4931991;28;20631;-71
2021/08/06 10:33:09;;;;;;;4.40;4.10;;;24.10;99.90;;;;;;4928490;28;20792;-71
2021/08/06 10:35:41;;;;;;;4.70;4.30;;;24.20;99.90;;;;;;4928825;28;20620;-71
2021/08/06 10:38:07;;;;;;;4.83;4.33;;;24.20;99.90;;;;;;4928309;29;20793;-71
2021/08/06 10:40:36;;;;;;;3.63;3.43;;;24.20;99.90;;;;;;4928159;29;20639;-70
2021/08/06 10:43:11;;;;;;;4.27;3.90;;;24.40;99.90;;;;;;4928286;28;20291;-71
2021/08/06 10:45:55;;;;;;;4.13;3.90;;;24.40;99.90;;;;;;4930455;29;20631;-70
2021/08/06 10:48:41;;;;;;;4.53;4.23;;;24.40;99.90;;;;;;4940892;28;20655;-71
2021/08/06 10:51:15;;;;;;;4.37;3.97;;;24.40;99.90;;;;;;4935971;29;20655;-71
2021/08/06 10:53:46;;;;;;;4.77;4.47;;;24.60;99.90;;;;;;4930752;29;20669;-71
2021/08/06 10:56:17;;;;;;;4.50;4.20;;;24.70;99.90;;;;;;4932537;28;20631;-71
2021/08/06 10:58:49;;;;;;;4.73;4.33;;;24.90;99.90;;;;;;4934371;29;20651;-71
2021/08/06 11:01:33;;;;;;;4.73;4.33;;;25.00;99.90;;;;;;4934524;28;20652;-70
2021/08/06 11:04:06;;;;;;;5.17;4.87;;;25.00;99.90;;;;;;4933220;28;20625;-71
2021/08/06 11:06:38;;;;;;;5.23;4.93;;;25.10;99.90;;;;;;4940863;28;20620;-70
2021/08/06 11:09:30;;;;;;;4.80;4.50;;;25.10;99.90;;;;;;4929041;28;20702;-70
2021/08/06 11:12:29;;;;;;;4.90;4.60;;;25.20;99.90;;;;;;4933476;28;20643;-71
2021/08/06 11:14:54;;;;;;;5.93;4.50;;;25.40;99.90;;;;;;4928455;29;20711;-74
2021/08/06 11:17:21;;;;;;;4.70;4.40;;;25.30;99.90;;;;;;4930286;28;20806;-70
2021/08/06 11:19:50;;;;;;;4.77;4.37;;;25.40;99.90;;;;;;4938307;28;20215;-71
2021/08/06 11:22:16;;;;;;;4.97;4.67;;;25.40;99.90;;;;;;4938871;28;21258;-71
2021/08/06 11:24:48;;;;;;;4.90;4.50;;;25.50;99.90;;;;;;4926902;29;20635;-70
2021/08/06 11:27:15;;;;;;;5.27;4.77;;;25.50;99.90;;;;;;4931392;29;20195;-71
2021/08/06 11:29:42;;;;;;;5.03;4.73;;;25.60;99.90;;;;;;4933970;28;20685;-70
2021/08/06 11:32:13;;;;;;;5.10;4.80;;;25.60;99.90;;;;;;4931181;28;21003;-70
2021/08/06 11:35:00;;;;;;;5.70;5.30;;;25.70;99.90;;;;;;4933321;29;20627;-70
2021/08/06 11:37:46;;;;;;;6.00;5.60;;;25.80;99.90;;;;;;4930048;28;20687;-70
2021/08/06 11:40:14;;;;;;;6.20;5.80;;;25.80;99.90;;;;;;4933426;29;20638;-70
2021/08/06 11:42:40;;;;;;;6.30;5.90;;;25.80;99.90;;;;;;4933812;28;21234;-70
2021/08/06 11:45:08;;;;;;;6.77;6.17;;;25.90;99.90;;;;;;4931091;29;20669;-70
2021/08/06 11:47:41;;;;;;;7.37;6.70;;;25.90;99.90;;;;;;4934357;28;20623;-71
2021/08/06 11:50:10;;;;;;;6.73;6.33;;;26.00;99.90;;;;;;4933208;29;20754;-70
2021/08/06 11:52:48;;;;;;;7.40;6.90;;;26.00;99.90;;;;;;4935440;28;21191;-70
2021/08/06 11:55:19;;;;;;;7.00;6.60;;;26.10;99.90;;;;;;4932335;28;20651;-71
2021/08/06 11:57:46;;;;;;;7.33;6.73;;;26.20;99.90;;;;;;4930868;28;20667;-70
2021/08/06 12:00:19;;;;;;;6.20;5.80;;;26.30;99.90;;;;;;4930853;28;21242;-70
2021/08/06 12:02:44;;;;;;;6.57;6.17;;;26.30;99.90;;;;;;4934555;28;20746;-70
2021/08/06 12:05:23;;;;;;;6.30;5.90;;;26.30;99.90;;;;;;4934375;28;20758;-71
2021/08/06 12:07:49;;;;;;;6.10;5.70;;;26.30;99.90;;;;;;4933360;28;20253;-71
2021/08/06 12:10:14;;;;;;;6.67;6.17;;;26.40;99.90;;;;;;4924461;28;20772;-70
2021/08/06 12:12:40;;;;;;;6.33;5.93;;;26.40;99.90;;;;;;4923545;28;20232;-73
2021/08/06 12:15:23;;;;;;;7.10;6.60;;;26.50;99.90;;;;;;4925886;28;20303;-73
2021/08/06 12:18:16;;;;;;;7.67;7.07;;;26.70;99.90;;;;;;4933725;28;20341;-73
2021/08/06 12:20:46;;;;;;;7.50;7.00;;;26.80;99.90;;;;;;4934379;28;20631;-73
2021/08/06 12:23:14;;;;;;;6.00;5.70;;;27.00;99.90;;;;;;4927210;28;22385;-73
2021/08/06 12:26:18;;;;;;;6.53;6.03;;;27.10;99.90;;;;;;4930852;28;20743;-73
2021/08/06 12:28:50;;;;;;;6.23;5.83;;;27.30;99.90;;;;;;4932607;28;20713;-72
2021/08/06 12:31:19;;;;;;;6.53;6.13;;;27.50;99.90;;;;;;4927971;28;21112;-72
2021/08/06 12:34:00;;;;;;;6.17;5.77;;;27.50;99.90;;;;;;4932729;28;20616;-73
2021/08/06 12:36:25;;;;;;;6.37;5.87;;;27.50;99.90;;;;;;4931124;28;21317;-72
2021/08/06 12:38:51;;;;;;;6.03;5.63;;;27.50;99.90;;;;;;4933140;28;20754;-72
2021/08/06 12:41:29;;;;;;;6.30;5.90;;;27.50;99.90;;;;;;4926128;28;20628;-72
2021/08/06 12:44:21;;;;;;;5.60;5.30;;;27.50;99.90;;;;;;4928972;28;20207;-72
2021/08/06 12:46:58;;;;;;;5.70;5.30;;;27.20;99.90;;;;;;4928399;28;20603;-72
2021/08/06 12:49:30;;;;;;;5.80;5.40;;;26.90;99.90;;;;;;4926740;28;20810;-72